createdAt,value
2023-02-21T00:01:02.952Z,98321.91
2023-02-21T00:03:52.660Z,98318.34
2023-02-21T00:06:39.293Z,98319.94
2023-02-21T00:09:25.746Z,98329.69
2023-02-21T00:12:12.398Z,98313.75
2023-02-21T00:14:58.982Z,98309.75
2023-02-21T00:17:47.295Z,98320.06
2023-02-21T00:20:33.868Z,98321.09
2023-02-21T00:23:20.463Z,98322.94
2023-02-21T00:26:10.048Z,98313.41
2023-02-21T00:28:56.655Z,98317.41
2023-02-21T00:31:45.980Z,98319.22
2023-02-21T00:34:33.882Z,98306.84
2023-02-21T00:37:20.484Z,98309.16
2023-02-21T00:40:07.056Z,98301.00
2023-02-21T00:42:53.705Z,98301.47
2023-02-21T00:45:40.339Z,98298.06
2023-02-21T00:48:28.253Z,98306.59
2023-02-21T00:51:16.864Z,98298.06
2023-02-21T00:54:06.317Z,98310.09
2023-02-21T00:56:52.889Z,98302.41
2023-02-21T00:59:39.509Z,98305.72
2023-02-21T01:02:26.878Z,98302.34
2023-02-21T01:05:14.038Z,98296.34
2023-02-21T01:08:03.837Z,98294.34
2023-02-21T01:10:50.708Z,98291.16
2023-02-21T01:13:37.489Z,98281.31
2023-02-21T01:16:26.712Z,98288.13
2023-02-21T01:19:13.771Z,98286.34
2023-02-21T01:26:36.518Z,98276.75
2023-02-21T01:29:23.138Z,98288.38
2023-02-21T01:32:12.974Z,98285.63
2023-02-21T01:34:59.792Z,98284.97
2023-02-21T01:37:46.467Z,98269.13
2023-02-21T01:40:34.541Z,98263.50
2023-02-21T01:43:34.169Z,98271.22
2023-02-21T01:46:21.424Z,98266.22
2023-02-21T01:49:11.473Z,98269.44
2023-02-21T01:52:00.901Z,98265.06
2023-02-21T01:54:52.842Z,98256.66
2023-02-21T01:57:40.810Z,98266.03
2023-02-21T02:00:32.646Z,98254.09
2023-02-21T02:03:25.054Z,98249.81
2023-02-21T02:06:15.267Z,98251.69
2023-02-21T02:09:01.958Z,98244.47
2023-02-21T02:12:21.701Z,98243.59
2023-02-21T02:15:29.128Z,98262.91
2023-02-21T02:18:30.114Z,98246.56
2023-02-21T02:21:43.347Z,98254.06
2023-02-21T02:24:48.558Z,98242.53
2023-02-21T02:27:43.154Z,98249.53
2023-02-21T02:31:05.717Z,98240.66
2023-02-21T02:34:14.355Z,98263.09
2023-02-21T02:36:49.487Z,98248.16
2023-02-21T02:39:29.416Z,98250.94
2023-02-21T02:42:09.431Z,98250.31
2023-02-21T02:44:42.834Z,98249.06
2023-02-21T02:47:23.562Z,98254.97
2023-02-21T02:49:55.781Z,98255.31
2023-02-21T02:52:26.489Z,98251.78
2023-02-21T02:55:05.098Z,98239.13
2023-02-21T02:57:41.080Z,98249.56
2023-02-21T03:00:13.001Z,98259.25
2023-02-21T03:03:08.428Z,98259.50
2023-02-21T03:06:00.609Z,98260.50
2023-02-21T03:08:42.937Z,98247.28
2023-02-21T03:11:18.906Z,98238.69
2023-02-21T03:13:55.572Z,98244.34
2023-02-21T03:16:30.390Z,98253.25
2023-02-21T03:19:11.140Z,98250.75
2023-02-21T03:21:46.677Z,98261.47
2023-02-21T03:24:20.574Z,98248.06
2023-02-21T03:26:54.724Z,98244.66
2023-02-21T03:29:47.679Z,98236.69
2023-02-21T03:32:25.450Z,98250.03
2023-02-21T03:34:55.809Z,98246.75
2023-02-21T03:37:33.453Z,98245.22
2023-02-21T03:40:12.117Z,98247.72
2023-02-21T03:42:41.231Z,98234.88
2023-02-21T03:45:11.148Z,98240.16
2023-02-21T03:47:40.991Z,98240.56
2023-02-21T03:50:10.585Z,98235.75
2023-02-21T03:52:43.692Z,98230.19
2023-02-21T03:55:14.391Z,98237.00
2023-02-21T03:57:43.602Z,98234.59
2023-02-21T04:00:15.329Z,98233.44
2023-02-21T04:02:44.419Z,98233.69
2023-02-21T04:05:23.347Z,98227.53
2023-02-21T04:07:52.995Z,98226.13
2023-02-21T04:10:23.661Z,98225.66
2023-02-21T04:12:53.193Z,98220.47
2023-02-21T04:15:22.716Z,98211.28
2023-02-21T04:17:51.945Z,98215.38
2023-02-21T04:20:21.460Z,98223.59
2023-02-21T04:23:03.222Z,98211.44
2023-02-21T04:25:35.605Z,98211.19
2023-02-21T04:28:13.038Z,98214.28
2023-02-21T04:30:42.613Z,98214.28
2023-02-21T04:33:12.466Z,98215.00
2023-02-21T04:35:41.875Z,98216.41
2023-02-21T04:38:18.401Z,98221.84
2023-02-21T04:40:48.954Z,98215.59
2023-02-21T04:43:18.666Z,98229.75
2023-02-21T04:45:47.905Z,98231.03
2023-02-21T04:48:17.457Z,98211.88
2023-02-21T04:50:46.852Z,98208.56
2023-02-21T04:53:19.302Z,98208.66
2023-02-21T04:55:49.949Z,98204.97
2023-02-21T04:58:19.163Z,98200.13
2023-02-21T05:00:48.409Z,98197.88
2023-02-21T05:03:18.349Z,98203.78
2023-02-21T05:05:47.639Z,98204.63
2023-02-21T05:08:17.261Z,98215.63
2023-02-21T05:10:46.973Z,98211.91
2023-02-21T05:13:24.796Z,98207.72
2023-02-21T05:15:53.997Z,98209.53
2023-02-21T05:18:28.741Z,98204.06
2023-02-21T05:20:57.926Z,98197.81
2023-02-21T05:23:35.760Z,98208.63
2023-02-21T05:26:08.256Z,98209.59
2023-02-21T05:28:39.595Z,98205.06
2023-02-21T05:31:09.819Z,98213.84
2023-02-21T05:33:39.200Z,98204.56
2023-02-21T05:36:09.348Z,98198.81
2023-02-21T05:38:46.383Z,98206.66
2023-02-21T05:41:22.798Z,98219.88
2023-02-21T05:43:53.552Z,98217.34
2023-02-21T05:46:25.750Z,98208.88
2023-02-21T05:48:56.203Z,98209.78
2023-02-21T05:51:25.984Z,98209.00
2023-02-21T05:53:55.570Z,98208.63
2023-02-21T05:56:24.773Z,98205.41
2023-02-21T05:58:55.361Z,98200.03
2023-02-21T06:01:24.547Z,98215.00
2023-02-21T06:03:56.030Z,98207.53
2023-02-21T06:06:25.480Z,98214.06
2023-02-21T06:08:54.555Z,98206.97
2023-02-21T06:11:27.070Z,98210.31
2023-02-21T06:14:00.152Z,98209.31
2023-02-21T06:16:29.755Z,98216.25
2023-02-21T06:18:59.006Z,98220.38
2023-02-21T06:21:28.313Z,98228.44
2023-02-21T06:27:17.662Z,98231.53
2023-02-21T06:29:48.458Z,98233.81
2023-02-21T06:32:22.810Z,98232.72
2023-02-21T06:34:52.532Z,98235.75
2023-02-21T06:37:22.153Z,98244.78
2023-02-21T06:39:51.245Z,98246.41
2023-02-21T06:42:24.040Z,98253.09
2023-02-21T06:44:55.086Z,98267.38
2023-02-21T06:47:24.285Z,98256.66
2023-02-21T06:49:53.566Z,98256.44
2023-02-21T06:52:25.713Z,98264.56
2023-02-21T06:54:54.952Z,98270.72
2023-02-21T06:57:24.109Z,98270.16
2023-02-21T06:59:54.800Z,98272.19
2023-02-21T07:02:27.215Z,98274.34
2023-02-21T07:04:56.489Z,98273.75
2023-02-21T07:07:35.777Z,98278.69
2023-02-21T07:10:06.384Z,98274.88
2023-02-21T07:12:35.613Z,98285.78
2023-02-21T07:15:07.089Z,98287.50
2023-02-21T07:17:36.597Z,98289.13
2023-02-21T07:20:06.984Z,98288.38
2023-02-21T07:22:36.497Z,98285.97
2023-02-21T07:25:06.856Z,98294.22
2023-02-21T07:27:36.065Z,98302.09
2023-02-21T07:30:08.007Z,98299.25
2023-02-21T07:32:40.264Z,98292.94
2023-02-21T07:35:10.329Z,98295.72
2023-02-21T07:37:39.588Z,98304.63
2023-02-21T07:40:09.781Z,98298.28
2023-02-21T07:42:43.753Z,98299.97
2023-02-21T07:45:15.246Z,98300.94
2023-02-21T07:47:48.018Z,98303.06
2023-02-21T07:50:18.532Z,98299.66
2023-02-21T07:52:47.821Z,98294.16
2023-02-21T07:55:16.926Z,98296.22
2023-02-21T07:57:47.181Z,98298.03
2023-02-21T08:00:18.389Z,98286.47
2023-02-21T08:02:50.494Z,98296.94
2023-02-21T08:05:21.488Z,98276.97
2023-02-21T08:07:56.182Z,98281.88
2023-02-21T08:10:28.380Z,98293.09
2023-02-21T08:12:57.476Z,98288.34
2023-02-21T08:15:27.961Z,98299.53
2023-02-21T08:17:58.072Z,98289.13
2023-02-21T08:20:27.092Z,98304.72
2023-02-21T08:22:56.193Z,98293.47
2023-02-21T08:25:25.232Z,98287.06
2023-02-21T08:27:55.415Z,98282.59
2023-02-21T08:30:25.355Z,98287.81
2023-02-21T08:32:56.082Z,98287.72
2023-02-21T08:35:25.449Z,98285.69
2023-02-21T08:37:56.732Z,98302.41
2023-02-21T08:40:26.079Z,98288.72
2023-02-21T08:42:55.522Z,98295.03
2023-02-21T08:45:27.485Z,98295.91
2023-02-21T08:47:59.193Z,98303.72
2023-02-21T08:50:30.436Z,98297.81
2023-02-21T08:53:00.161Z,98301.22
2023-02-21T08:55:29.172Z,98304.94
2023-02-21T08:57:58.329Z,98306.59
2023-02-21T09:00:28.915Z,98296.59
2023-02-21T09:03:01.080Z,98310.28
2023-02-21T09:05:33.280Z,98315.75
2023-02-21T09:08:05.327Z,98304.22
2023-02-21T09:10:35.177Z,98311.63
2023-02-21T09:13:06.664Z,98311.22
2023-02-21T09:15:35.872Z,98309.47
2023-02-21T09:18:07.202Z,98304.75
2023-02-21T09:20:41.702Z,98309.44
2023-02-21T09:23:11.096Z,98310.66
2023-02-21T09:25:43.143Z,98311.66
2023-02-21T09:28:12.403Z,98309.78
2023-02-21T09:30:41.979Z,98309.69
2023-02-21T09:33:12.870Z,98296.16
2023-02-21T09:35:42.056Z,98310.00
2023-02-21T09:38:11.452Z,98307.50
2023-02-21T09:40:44.642Z,98305.59
2023-02-21T09:43:19.537Z,98299.13
2023-02-21T09:45:51.071Z,98300.63
2023-02-21T09:48:24.282Z,98304.84
2023-02-21T09:50:57.229Z,98304.84
2023-02-21T09:53:30.535Z,98306.44
2023-02-21T09:56:06.317Z,98307.78
2023-02-21T09:58:43.837Z,98311.31
2023-02-21T10:01:26.198Z,98305.50
2023-02-21T10:04:15.157Z,98298.69
2023-02-21T10:06:52.842Z,98301.84
2023-02-21T10:09:43.573Z,98315.88
2023-02-21T10:12:25.543Z,98308.53
2023-02-21T10:15:31.305Z,98302.41
2023-02-21T10:18:06.982Z,98308.66
2023-02-21T10:20:42.670Z,98297.31
2023-02-21T10:23:18.551Z,98290.63
2023-02-21T10:25:48.218Z,98290.50
2023-02-21T10:28:21.357Z,98288.47
2023-02-21T10:30:53.410Z,98290.59
2023-02-21T10:33:22.441Z,98286.38
2023-02-21T10:35:55.266Z,98286.59
2023-02-21T10:38:27.429Z,98279.34
2023-02-21T10:40:59.498Z,98275.59
2023-02-21T10:43:35.455Z,98281.00
2023-02-21T10:46:11.380Z,98271.50
2023-02-21T10:48:44.072Z,98274.31
2023-02-21T10:51:17.389Z,98261.06
2023-02-21T10:53:48.836Z,98267.50
2023-02-21T11:00:49.700Z,98261.00
2023-02-21T11:03:27.389Z,98251.84
2023-02-21T11:05:59.819Z,98250.88
2023-02-21T11:08:43.784Z,98256.31
2023-02-21T11:11:13.292Z,98246.81
2023-02-21T11:13:42.537Z,98255.03
2023-02-21T11:16:19.068Z,98245.69
2023-02-21T11:18:48.198Z,98244.44
2023-02-21T11:21:19.820Z,98237.16
2023-02-21T11:23:59.177Z,98223.50
2023-02-21T11:26:30.566Z,98216.22
2023-02-21T11:29:12.685Z,98218.84
2023-02-21T11:31:42.854Z,98209.34
2023-02-21T11:34:16.105Z,98206.78
2023-02-21T11:36:47.285Z,98197.28
2023-02-21T11:39:21.686Z,98200.47
2023-02-21T11:41:53.568Z,98213.16
2023-02-21T11:44:34.114Z,98207.69
2023-02-21T11:47:15.273Z,98190.69
2023-02-21T11:50:00.146Z,98192.06
2023-02-21T11:58:09.058Z,98181.84
2023-02-21T12:01:02.117Z,98176.03
2023-02-21T12:04:10.840Z,98166.56
2023-02-21T12:06:49.835Z,98180.75
2023-02-21T12:09:28.702Z,98161.53
2023-02-21T12:12:21.171Z,98149.41
2023-02-21T12:15:12.201Z,98146.16
2023-02-21T12:18:06.857Z,98165.78
2023-02-21T12:21:01.589Z,98161.88
2023-02-21T12:23:42.288Z,98158.72
2023-02-21T12:26:33.839Z,98140.66
2023-02-21T12:29:21.525Z,98145.06
2023-02-21T12:32:23.288Z,98138.16
2023-02-21T12:35:16.021Z,98136.41
2023-02-21T12:37:51.947Z,98134.59
2023-02-21T12:40:28.635Z,98127.16
2023-02-21T12:43:24.753Z,98133.47
2023-02-21T12:46:05.344Z,98125.16
2023-02-21T12:48:42.621Z,98116.53
2023-02-21T12:51:17.101Z,98106.72
2023-02-21T12:53:53.298Z,98120.38
2023-02-21T12:56:29.958Z,98106.31
2023-02-21T12:59:05.458Z,98107.50
2023-02-21T13:01:39.359Z,98104.28
2023-02-21T13:04:24.252Z,98111.28
2023-02-21T13:07:03.909Z,98110.63
2023-02-21T13:09:39.205Z,98101.59
2023-02-21T13:12:13.945Z,98097.81
2023-02-21T13:14:49.191Z,98104.50
2023-02-21T13:17:20.728Z,98108.72
2023-02-21T13:19:56.555Z,98106.44
2023-02-21T13:23:21.768Z,98095.69
2023-02-21T13:26:11.718Z,98108.13
2023-02-21T13:28:42.330Z,98091.06
2023-02-21T13:31:22.248Z,98103.34
2023-02-21T13:33:54.253Z,98085.81
2023-02-21T13:36:29.613Z,98085.38
2023-02-21T13:39:04.745Z,98078.13
2023-02-21T13:41:41.703Z,98074.31
2023-02-21T13:44:14.850Z,98093.41
2023-02-21T13:47:10.560Z,98076.66
2023-02-21T13:49:48.337Z,98069.47
2023-02-21T13:53:14.131Z,98084.56
2023-02-21T13:56:18.425Z,98077.78
2023-02-21T13:58:50.667Z,98082.19
2023-02-21T14:01:51.055Z,98074.50
2023-02-21T14:05:02.358Z,98061.38
2023-02-21T14:07:53.830Z,98066.91
2023-02-21T14:10:39.977Z,98062.66
2023-02-21T14:13:22.508Z,98066.19
2023-02-21T14:16:00.173Z,98063.97
2023-02-21T14:18:34.407Z,98065.28
2023-02-21T14:21:06.118Z,98063.97
2023-02-21T14:23:48.356Z,98069.34
2023-02-21T14:26:44.988Z,98066.59
2023-02-21T14:29:35.547Z,98065.94
2023-02-21T14:32:28.819Z,98073.16
2023-02-21T14:35:00.186Z,98072.13
2023-02-21T14:37:37.263Z,98070.81
2023-02-21T14:40:32.572Z,98070.44
2023-02-21T14:43:22.575Z,98052.72
2023-02-21T14:46:07.377Z,98058.34
2023-02-21T14:49:18.550Z,98065.56
2023-02-21T14:52:32.768Z,98062.31
2023-02-21T14:55:36.158Z,98064.97
2023-02-21T14:59:01.060Z,98065.44
2023-02-21T15:01:55.513Z,98064.72
2023-02-21T15:04:38.498Z,98066.72
2023-02-21T15:07:19.817Z,98061.59
2023-02-21T15:10:17.134Z,98057.97
2023-02-21T15:12:50.525Z,98062.44
2023-02-21T15:15:25.745Z,98060.81
2023-02-21T15:18:06.172Z,98058.34
2023-02-21T15:20:38.792Z,98066.41
2023-02-21T15:23:19.290Z,98059.91
2023-02-21T15:25:56.527Z,98059.63
2023-02-21T15:28:28.254Z,98058.28
2023-02-21T15:31:02.616Z,98068.75
2023-02-21T15:33:35.525Z,98063.09
2023-02-21T15:36:10.280Z,98067.16
2023-02-21T15:38:46.176Z,98057.56
2023-02-21T15:41:28.762Z,98062.38
2023-02-21T15:44:03.953Z,98068.22
2023-02-21T15:46:42.967Z,98068.78
2023-02-21T15:49:20.224Z,98062.84
2023-02-21T15:51:54.092Z,98074.03
2023-02-21T15:54:28.234Z,98081.63
2023-02-21T15:57:22.784Z,98085.81
2023-02-21T16:00:18.331Z,98081.72
2023-02-21T16:02:47.872Z,98075.59
2023-02-21T16:05:27.288Z,98082.91
2023-02-21T16:08:04.543Z,98090.88
2023-02-21T16:10:33.810Z,98084.25
2023-02-21T16:13:03.810Z,98088.97
2023-02-21T16:15:35.277Z,98088.91
2023-02-21T16:18:08.108Z,98089.09
2023-02-21T16:20:40.065Z,98092.41
2023-02-21T16:23:26.948Z,98093.19
2023-02-21T16:25:59.732Z,98097.03
2023-02-21T16:28:29.628Z,98099.31
2023-02-21T16:31:03.423Z,98093.81
2023-02-21T16:33:33.415Z,98109.25
2023-02-21T16:36:07.822Z,98103.81
2023-02-21T16:38:38.498Z,98100.25
2023-02-21T16:41:07.693Z,98116.66
2023-02-21T16:43:36.750Z,98112.44
2023-02-21T16:46:07.294Z,98122.88
2023-02-21T16:48:36.436Z,98133.94
2023-02-21T16:51:14.147Z,98128.41
2023-02-21T16:53:46.343Z,98133.22
2023-02-21T16:56:16.874Z,98131.19
2023-02-21T16:58:51.606Z,98134.78
2023-02-21T17:01:29.824Z,98149.06
2023-02-21T17:03:58.927Z,98154.09
2023-02-21T17:06:29.902Z,98158.22
2023-02-21T17:09:00.402Z,98156.13
2023-02-21T17:11:29.948Z,98157.16
2023-02-21T17:13:59.013Z,98166.28
2023-02-21T17:16:28.529Z,98156.50
2023-02-21T17:18:57.682Z,98159.25
2023-02-21T17:21:26.852Z,98174.56
2023-02-21T17:23:57.553Z,98170.16
2023-02-21T17:26:28.120Z,98178.00
2023-02-21T17:28:57.591Z,98168.75
2023-02-21T17:31:26.773Z,98179.22
2023-02-21T17:33:56.451Z,98175.50
2023-02-21T17:36:28.681Z,98181.16
2023-02-21T17:38:59.063Z,98179.78
2023-02-21T17:41:29.775Z,98180.16
2023-02-21T17:43:58.880Z,98187.69
2023-02-21T17:46:28.051Z,98183.25
2023-02-21T17:48:58.131Z,98189.72
2023-02-21T17:51:27.843Z,98193.78
2023-02-21T17:53:57.454Z,98191.66
2023-02-21T17:56:27.700Z,98190.97
2023-02-21T17:59:01.228Z,98199.16
2023-02-21T18:01:31.315Z,98191.91
2023-02-21T18:04:01.544Z,98199.97
2023-02-21T18:06:32.894Z,98199.38
2023-02-21T18:09:03.692Z,98211.53
2023-02-21T18:11:33.305Z,98194.00
2023-02-21T18:14:05.140Z,98200.31
2023-02-21T18:16:34.419Z,98201.94
2023-02-21T18:19:05.980Z,98201.69
2023-02-21T18:21:36.858Z,98205.41
2023-02-21T18:24:06.739Z,98200.78
2023-02-21T18:26:36.097Z,98198.50
2023-02-21T18:29:07.923Z,98207.28
2023-02-21T18:31:37.321Z,98203.38
2023-02-21T18:34:08.071Z,98205.69
2023-02-21T18:36:40.922Z,98206.53
2023-02-21T18:39:10.191Z,98204.09
2023-02-21T18:41:40.357Z,98206.06
2023-02-21T18:44:10.946Z,98204.94
2023-02-21T18:46:45.992Z,98199.81
2023-02-21T18:49:15.857Z,98212.28
2023-02-21T18:51:44.880Z,98213.94
2023-02-21T18:54:13.844Z,98208.34
2023-02-21T18:56:49.471Z,98200.38
2023-02-21T18:59:22.496Z,98211.59
2023-02-21T19:01:52.218Z,98207.22
2023-02-21T19:04:21.713Z,98208.03
2023-02-21T19:06:50.748Z,98203.63
2023-02-21T19:09:19.781Z,98207.63
2023-02-21T19:11:48.803Z,98208.75
2023-02-21T19:14:19.223Z,98205.94
2023-02-21T19:16:48.209Z,98213.22
2023-02-21T19:19:17.270Z,98221.59
2023-02-21T19:21:46.346Z,98224.81
2023-02-21T19:24:16.407Z,98219.59
2023-02-21T19:26:45.750Z,98226.72
2023-02-21T19:29:15.955Z,98234.72
2023-02-21T19:31:49.125Z,98233.84
2023-02-21T19:34:18.348Z,98238.66
2023-02-21T19:36:48.728Z,98242.75
2023-02-21T19:39:18.865Z,98245.94
2023-02-21T19:41:48.401Z,98244.28
2023-02-21T19:44:17.719Z,98241.09
2023-02-21T19:46:48.519Z,98244.34
2023-02-21T19:49:18.840Z,98247.56
2023-02-21T19:51:51.609Z,98248.34
2023-02-21T19:54:24.553Z,98247.06
2023-02-21T19:56:53.837Z,98243.31
2023-02-21T19:59:25.524Z,98240.41
2023-02-21T20:01:56.796Z,98240.44
2023-02-21T20:04:28.786Z,98251.63
2023-02-21T20:06:59.485Z,98252.00
2023-02-21T20:09:29.087Z,98244.88
2023-02-21T20:12:03.588Z,98241.84
2023-02-21T20:14:32.933Z,98250.28
2023-02-21T20:17:09.414Z,98250.19
2023-02-21T20:19:38.790Z,98235.81
2023-02-21T20:22:08.879Z,98248.50
2023-02-21T20:24:38.354Z,98243.72
2023-02-21T20:27:07.485Z,98245.25
2023-02-21T20:29:36.510Z,98249.22
2023-02-21T20:32:08.126Z,98245.34
2023-02-21T20:34:40.168Z,98241.41
2023-02-21T20:37:11.175Z,98248.19
2023-02-21T20:39:40.452Z,98242.22
2023-02-21T20:42:10.312Z,98240.22
2023-02-21T20:44:40.026Z,98255.41
2023-02-21T20:47:12.249Z,98258.16
2023-02-21T20:49:47.410Z,98263.53
2023-02-21T20:52:18.173Z,98248.09
2023-02-21T20:54:47.412Z,98255.00
2023-02-21T20:57:17.549Z,98252.56
2023-02-21T20:59:47.538Z,98266.84
2023-02-21T21:02:18.234Z,98257.31
2023-02-21T21:04:48.185Z,98261.13
2023-02-21T21:07:21.458Z,98262.38
2023-02-21T21:09:51.374Z,98264.66
2023-02-21T21:12:24.653Z,98260.00
2023-02-21T21:14:54.848Z,98264.06
2023-02-21T21:17:25.435Z,98263.47
2023-02-21T21:19:54.930Z,98266.78
2023-02-21T21:22:28.012Z,98277.06
2023-02-21T21:24:58.649Z,98265.84
2023-02-21T21:27:28.478Z,98277.66
2023-02-21T21:30:01.685Z,98277.72
2023-02-21T21:32:32.183Z,98272.75
2023-02-21T21:35:06.886Z,98289.13
2023-02-21T21:37:38.922Z,98287.47
2023-02-21T21:40:16.014Z,98284.59
2023-02-21T21:42:47.104Z,98280.50
2023-02-21T21:45:19.856Z,98292.03
2023-02-21T21:47:52.265Z,98287.41
2023-02-21T21:50:23.232Z,98297.66
2023-02-21T21:52:55.260Z,98297.53
2023-02-21T21:55:26.696Z,98292.44
2023-02-21T21:57:59.314Z,98296.63
2023-02-21T22:00:30.963Z,98293.34
2023-02-21T22:03:02.340Z,98295.97
2023-02-21T22:05:35.469Z,98293.91
2023-02-21T22:08:05.301Z,98297.22
2023-02-21T22:10:34.289Z,98302.78
2023-02-21T22:13:13.583Z,98307.78
2023-02-21T22:15:44.601Z,98309.72
2023-02-21T22:18:19.657Z,98303.63
2023-02-21T22:20:49.787Z,98306.84
2023-02-21T22:23:22.620Z,98313.38
2023-02-21T22:25:52.433Z,98304.78
2023-02-21T22:28:21.458Z,98298.22
2023-02-21T22:30:52.337Z,98310.34
2023-02-21T22:33:22.811Z,98309.13
2023-02-21T22:35:51.882Z,98297.69
2023-02-21T22:38:20.843Z,98303.50
2023-02-21T22:40:49.896Z,98292.88
2023-02-21T22:43:20.086Z,98310.81
2023-02-21T22:45:50.088Z,98293.75
2023-02-21T22:48:21.052Z,98301.19
2023-02-21T22:50:52.320Z,98284.78
2023-02-21T22:53:23.102Z,98299.50
2023-02-21T22:55:53.379Z,98297.91
2023-02-21T22:58:23.545Z,98312.06
2023-02-21T23:00:54.339Z,98292.16
2023-02-21T23:03:23.419Z,98307.44
2023-02-21T23:05:54.974Z,98309.09
2023-02-21T23:08:24.620Z,98303.72
2023-02-21T23:10:53.749Z,98302.81
2023-02-21T23:13:25.874Z,98305.38
2023-02-21T23:16:01.070Z,98301.94
2023-02-21T23:18:31.595Z,98315.69
2023-02-21T23:21:04.956Z,98305.47
2023-02-21T23:23:34.064Z,98306.63
2023-02-21T23:26:07.670Z,98314.94
2023-02-21T23:28:36.874Z,98312.16
2023-02-21T23:31:06.342Z,98308.84
2023-02-21T23:33:35.345Z,98310.66
2023-02-21T23:36:06.757Z,98314.50
2023-02-21T23:38:38.458Z,98312.31
2023-02-21T23:41:09.051Z,98314.97
2023-02-21T23:43:39.974Z,98314.53
2023-02-21T23:46:09.560Z,98316.16
2023-02-21T23:48:38.677Z,98302.81
2023-02-21T23:51:09.206Z,98302.69
2023-02-21T23:53:38.906Z,98309.84
2023-02-21T23:56:13.130Z,98302.44
2023-02-21T23:58:46.444Z,98294.00
